Accueil
METAR-TAF:

METAR-TAF

Aéroports :

Cascais, Portugal

latitude: 38-43-32N, longitude: 009-21-19W, altitude: 99 m

Observation

Le bulletin a été fait il y a 15 minutes, à 08:00 UTC
Vent 7 kt de nord-ouest
Température 12°C
Humidité 76%
Pression 1026 hPa
Visibilité 10 km ou plus
Quelques nuages à une hauteur de 1600 ft

METAR: LPCS 140800Z 31007KT 9999 FEW016 12/08 Q1026

Heure: 08:15 (08:15 UTC)

Prévision

Le bulletin a été fait il y a 45 minutes, à 07:30 UTC
Prévision valable du 14 à 07 UTC au 14 à 15 UTC
Vent 8 kt de nord-ouest
Visibilité 10 km ou plus
Quelques nuages à une hauteur de 1500 ft

TAF: LPCS 140730Z 1407/1415 32008KT 9999 FEW015

Observations et prévisions météorologiques de plus de 4000 aéroports (messages METAR et TAF).

Les stations disponibles sont représentées par des disques jaunes et rouges sur la carte.

Passer la souris dessus pour voir le nom de la station.

Cliquer dessus pour voir les observations et prévisions météorologiques.

Pour changer de carte: cliquez sur les boutons verts avec une croix noire pour zoomer, sur le bouton vert avec un tiret pour effectuer un zoom arrière, ou sur les flèches vertes pour les cartes adjacentes.


METAR-TAF: